Time;durP1;ratioP1;P1;durP2;ratioP2;P2;SDS_P1;SDS_P2;PMS_P1;PMS_P2;Temp;Humidity;BMP_temperature;BMP_pressure;BME280_temperature;BME280_humidity;BME280_pressure;Samples;Min_cycle;Max_cycle;Signal;HPM_P1;HPM_P2
2023/04/29 00:01:28;;;;;;;5.93;2.47;;;13.00;99.90;;;;;;4992058;28;20140;-78
2023/04/29 00:03:53;;;;;;;4.55;2.38;;;13.00;99.90;;;;;;4978681;28;20041;-77
2023/04/29 00:06:19;;;;;;;3.85;2.50;;;13.00;99.90;;;;;;4974407;28;20034;-77
2023/04/29 00:08:45;;;;;;;3.50;2.10;;;12.90;99.90;;;;;;4995098;28;20436;-77
2023/04/29 00:11:11;;;;;;;3.40;2.10;;;12.90;99.90;;;;;;4994936;28;20006;-78
2023/04/29 00:13:39;;;;;;;4.97;2.95;;;12.90;99.90;;;;;;4996260;28;20076;-78
2023/04/29 00:16:06;;;;;;;3.50;2.53;;;12.90;99.90;;;;;;4979413;28;20579;-78
2023/04/29 00:18:31;;;;;;;6.88;2.47;;;12.90;99.90;;;;;;4994105;28;20030;-78
2023/04/29 00:20:57;;;;;;;3.28;2.40;;;12.80;99.90;;;;;;4990551;28;20054;-77
2023/04/29 00:23:23;;;;;;;5.53;3.30;;;12.80;99.90;;;;;;4993860;28;20475;-77
2023/04/29 00:25:50;;;;;;;4.68;3.00;;;12.80;99.90;;;;;;4994107;28;20030;-77
2023/04/29 00:28:16;;;;;;;4.82;2.90;;;12.80;99.90;;;;;;4976720;28;20034;-78
2023/04/29 00:30:41;;;;;;;5.35;3.33;;;12.80;99.90;;;;;;4994616;28;20031;-78
2023/04/29 00:33:07;;;;;;;9.75;3.10;;;12.70;99.90;;;;;;4996647;28;20468;-77
2023/04/29 00:35:33;;;;;;;4.90;3.20;;;12.70;99.90;;;;;;4993967;28;20034;-77
2023/04/29 00:37:59;;;;;;;5.20;3.05;;;12.70;99.90;;;;;;4975214;28;20054;-77
2023/04/29 00:40:26;;;;;;;6.13;3.05;;;12.70;99.90;;;;;;4997068;28;20501;-78
2023/04/29 00:42:51;;;;;;;4.03;2.67;;;12.70;99.90;;;;;;4996917;28;20033;-78
2023/04/29 00:45:17;;;;;;;3.63;2.15;;;12.70;99.90;;;;;;4992681;28;20034;-78
2023/04/29 00:47:43;;;;;;;5.78;2.25;;;12.70;99.90;;;;;;4994803;28;20030;-78
2023/04/29 00:50:08;;;;;;;5.15;2.78;;;12.60;99.90;;;;;;4997116;28;20062;-78
2023/04/29 00:52:36;;;;;;;6.93;2.75;;;12.60;99.90;;;;;;4977091;28;20022;-78
2023/04/29 00:55:04;;;;;;;3.95;2.70;;;12.60;99.90;;;;;;4978968;28;20026;-78
2023/04/29 00:57:30;;;;;;;4.63;2.55;;;12.60;99.90;;;;;;4992656;28;20034;-77
2023/04/29 00:59:57;;;;;;;3.63;2.38;;;12.50;99.90;;;;;;4972201;28;20176;-77
2023/04/29 01:02:22;;;;;;;6.03;2.60;;;12.50;99.90;;;;;;4990251;28;20377;-76
2023/04/29 01:04:48;;;;;;;4.63;2.33;;;12.50;99.90;;;;;;4988178;28;20030;-77
2023/04/29 01:07:17;;;;;;;3.28;2.30;;;12.50;99.90;;;;;;4990592;28;20033;-77
2023/04/29 01:10:08;;;;;;;4.70;2.03;;;12.50;99.90;;;;;;4986611;28;20469;-80
2023/04/29 01:12:58;;;;;;;4.75;2.40;;;12.50;99.90;;;;;;4990844;28;20056;-78
2023/04/29 01:15:47;;;;;;;4.82;2.65;;;12.50;99.90;;;;;;4992078;28;20030;-77
2023/04/29 01:18:29;;;;;;;3.30;2.17;;;12.50;99.90;;;;;;4989175;28;20027;-78
2023/04/29 01:20:56;;;;;;;5.75;1.80;;;12.50;99.90;;;;;;4990617;28;20028;-78
2023/04/29 01:23:28;;;;;;;4.05;1.98;;;12.40;99.90;;;;;;4992273;28;20076;-78
2023/04/29 01:25:55;;;;;;;5.25;2.35;;;12.40;99.90;;;;;;4991721;28;20077;-78
2023/04/29 01:28:29;;;;;;;2.78;2.10;;;12.40;99.90;;;;;;4992759;28;20339;-78
2023/04/29 01:31:29;;;;;;;3.20;1.73;;;12.40;99.90;;;;;;4991831;28;20026;-78
2023/04/29 01:34:13;;;;;;;3.47;2.30;;;12.40;99.90;;;;;;4993033;28;20028;-78
2023/04/29 01:36:44;;;;;;;3.25;2.42;;;12.40;99.90;;;;;;4992459;28;20052;-78
2023/04/29 01:39:24;;;;;;;3.38;2.35;;;12.40;99.90;;;;;;4993819;28;20137;-78
2023/04/29 01:41:59;;;;;;;4.43;2.45;;;12.40;99.90;;;;;;4992613;28;20030;-77
2023/04/29 01:44:28;;;;;;;4.80;2.33;;;12.40;99.90;;;;;;4990931;28;20050;-77
2023/04/29 01:46:55;;;;;;;5.05;2.33;;;12.40;99.90;;;;;;4975914;28;20045;-78
2023/04/29 01:49:24;;;;;;;4.10;2.15;;;12.40;99.90;;;;;;4991231;28;20460;-77
2023/04/29 01:51:50;;;;;;;3.28;2.10;;;12.30;99.90;;;;;;4989889;28;20034;-77
2023/04/29 01:54:16;;;;;;;3.15;2.13;;;12.30;99.90;;;;;;4989071;28;20397;-77
2023/04/29 01:56:41;;;;;;;5.88;2.15;;;12.30;99.90;;;;;;4974352;28;20030;-77
2023/04/29 01:59:07;;;;;;;3.97;1.80;;;12.30;99.90;;;;;;4988977;28;20023;-77
2023/04/29 02:01:33;;;;;;;2.40;1.67;;;12.30;99.90;;;;;;4989679;28;20038;-78
2023/04/29 02:03:59;;;;;;;4.43;1.90;;;12.30;99.90;;;;;;4988500;28;21365;-78
2023/04/29 02:06:25;;;;;;;4.80;2.45;;;12.30;99.90;;;;;;4989622;28;20097;-77
2023/04/29 02:08:51;;;;;;;4.07;2.05;;;12.20;99.90;;;;;;4995250;28;20035;-77
2023/04/29 02:11:16;;;;;;;5.75;2.22;;;12.20;99.90;;;;;;4991091;28;20354;-77
2023/04/29 02:13:42;;;;;;;5.97;2.45;;;12.30;99.90;;;;;;4992321;28;20023;-77
2023/04/29 02:16:12;;;;;;;2.50;1.85;;;12.20;99.90;;;;;;4990533;28;20057;-77
2023/04/29 02:18:38;;;;;;;3.40;2.38;;;12.30;99.90;;;;;;4978270;28;20088;-77
2023/04/29 02:21:07;;;;;;;5.25;2.28;;;12.20;99.90;;;;;;4989651;28;20473;-77
2023/04/29 02:23:33;;;;;;;3.72;1.88;;;12.20;99.90;;;;;;4991178;28;20389;-77
2023/04/29 02:26:00;;;;;;;5.20;1.77;;;12.20;99.90;;;;;;4989690;28;20034;-77
2023/04/29 02:28:26;;;;;;;4.53;2.28;;;12.20;99.90;;;;;;4990120;28;20057;-78
2023/04/29 02:30:52;;;;;;;3.17;2.00;;;12.20;99.90;;;;;;4990753;28;20124;-77
2023/04/29 02:33:17;;;;;;;2.80;2.05;;;12.20;99.90;;;;;;4974367;28;20096;-77
2023/04/29 02:35:43;;;;;;;2.63;2.17;;;12.20;99.90;;;;;;4987615;28;20023;-77
2023/04/29 02:38:09;;;;;;;3.92;1.95;;;12.10;99.90;;;;;;4985726;28;20053;-77
2023/04/29 02:40:40;;;;;;;5.30;2.00;;;12.10;99.90;;;;;;4988305;28;20034;-77
2023/04/29 02:43:06;;;;;;;4.20;2.08;;;12.10;99.90;;;;;;4982380;28;20103;-78
2023/04/29 02:45:32;;;;;;;3.60;2.20;;;12.10;99.90;;;;;;4992399;28;20026;-78
2023/04/29 02:47:57;;;;;;;5.28;2.08;;;12.10;99.90;;;;;;4990174;28;20401;-78
2023/04/29 02:50:24;;;;;;;5.97;2.55;;;12.10;99.90;;;;;;4989802;28;20073;-77
2023/04/29 02:52:50;;;;;;;3.80;2.42;;;12.00;99.90;;;;;;4989152;28;20217;-78
2023/04/29 02:55:17;;;;;;;4.93;2.30;;;12.00;99.90;;;;;;4973416;28;20109;-76
2023/04/29 02:57:43;;;;;;;4.93;2.42;;;12.00;99.90;;;;;;4986817;28;20025;-78
2023/04/29 03:00:09;;;;;;;4.68;2.35;;;11.90;99.90;;;;;;4990497;28;20035;-78
2023/04/29 03:02:36;;;;;;;5.35;2.22;;;11.90;99.90;;;;;;4990027;28;20027;-77
2023/04/29 03:05:02;;;;;;;3.50;2.30;;;11.90;99.90;;;;;;4992389;28;20072;-78
2023/04/29 03:07:28;;;;;;;4.28;1.95;;;11.90;99.90;;;;;;4972400;28;20084;-78
2023/04/29 03:09:55;;;;;;;4.90;2.63;;;11.90;99.90;;;;;;4989682;28;20083;-78
2023/04/29 03:12:21;;;;;;;4.07;2.35;;;11.80;99.90;;;;;;4989198;28;20400;-77
2023/04/29 03:14:46;;;;;;;4.45;2.40;;;11.80;99.90;;;;;;4989403;28;20682;-77
2023/04/29 03:17:13;;;;;;;5.38;2.33;;;11.80;99.90;;;;;;4987838;28;20160;-78
2023/04/29 03:19:38;;;;;;;3.75;2.28;;;11.80;99.90;;;;;;4988584;28;20076;-79
2023/04/29 03:22:05;;;;;;;5.53;2.70;;;11.80;99.90;;;;;;4987571;28;20465;-79
2023/04/29 03:24:30;;;;;;;6.18;3.17;;;11.80;99.90;;;;;;4989398;28;20354;-79
2023/04/29 03:26:56;;;;;;;3.65;2.00;;;11.80;99.90;;;;;;4988708;28;20027;-78
2023/04/29 03:29:21;;;;;;;2.90;2.00;;;11.80;99.90;;;;;;4989664;28;20444;-78
2023/04/29 03:31:47;;;;;;;3.83;1.80;;;11.80;99.90;;;;;;4991105;28;20026;-79
2023/04/29 03:34:15;;;;;;;5.15;2.22;;;11.80;99.90;;;;;;4994966;28;20026;-79
2023/04/29 03:36:41;;;;;;;3.58;2.10;;;11.80;99.90;;;;;;4995037;28;20505;-78
2023/04/29 03:39:07;;;;;;;3.67;2.00;;;11.80;99.90;;;;;;4996499;28;20069;-78
2023/04/29 03:41:32;;;;;;;3.80;2.00;;;11.80;99.90;;;;;;4997602;28;20037;-79
2023/04/29 03:43:59;;;;;;;5.82;2.13;;;11.80;99.90;;;;;;4976896;28;20026;-79
2023/04/29 03:46:28;;;;;;;4.82;2.10;;;11.80;99.90;;;;;;4995928;28;20046;-79
2023/04/29 03:48:56;;;;;;;3.22;2.05;;;11.80;99.90;;;;;;4994818;28;20434;-79
2023/04/29 03:51:23;;;;;;;4.18;2.30;;;11.70;99.90;;;;;;4994064;28;20122;-78
2023/04/29 03:53:50;;;;;;;2.97;2.33;;;11.70;99.90;;;;;;4994536;28;20026;-79
2023/04/29 03:56:16;;;;;;;2.85;2.10;;;11.70;99.90;;;;;;4992541;28;21027;-78
2023/04/29 03:58:41;;;;;;;3.63;2.83;;;11.60;99.90;;;;;;4996299;28;20031;-78
2023/04/29 04:01:07;;;;;;;5.15;3.10;;;11.60;99.90;;;;;;4998002;28;20039;-76
2023/04/29 04:03:33;;;;;;;8.88;2.63;;;11.60;99.90;;;;;;4996028;28;20030;-77
2023/04/29 04:05:58;;;;;;;6.38;2.50;;;11.60;99.90;;;;;;4978712;28;20094;-78
2023/04/29 04:08:24;;;;;;;3.35;2.33;;;11.60;99.90;;;;;;4994907;28;20035;-78
2023/04/29 04:10:50;;;;;;;5.30;2.80;;;11.60;99.90;;;;;;4995180;28;20125;-78
2023/04/29 04:13:15;;;;;;;13.10;3.78;;;11.60;99.90;;;;;;4998454;28;20384;-79
2023/04/29 04:15:41;;;;;;;4.68;2.95;;;11.60;99.90;;;;;;4995619;28;20373;-78
2023/04/29 04:18:07;;;;;;;6.43;3.42;;;11.60;99.90;;;;;;4995897;28;20034;-78
2023/04/29 04:20:36;;;;;;;5.50;3.20;;;11.60;99.90;;;;;;4996775;28;20026;-78
2023/04/29 04:23:02;;;;;;;10.02;3.63;;;11.60;99.90;;;;;;5000060;28;20033;-78
2023/04/29 04:25:29;;;;;;;16.35;4.10;;;11.60;99.90;;;;;;4981498;28;20034;-79
2023/04/29 04:27:54;;;;;;;12.27;5.28;;;11.60;99.90;;;;;;4995462;28;20022;-78
2023/04/29 04:30:20;;;;;;;10.70;4.53;;;11.60;99.90;;;;;;5001078;28;20549;-79
2023/04/29 04:32:45;;;;;;;9.27;4.47;;;11.60;99.90;;;;;;4998871;28;20022;-78
2023/04/29 04:35:11;;;;;;;8.57;4.68;;;11.60;99.90;;;;;;4998438;28;20034;-79
2023/04/29 04:37:37;;;;;;;9.48;4.80;;;11.60;99.90;;;;;;4998461;28;20239;-79
2023/04/29 04:40:03;;;;;;;11.35;5.15;;;11.60;99.90;;;;;;4998602;28;20077;-79
2023/04/29 04:42:29;;;;;;;8.57;5.00;;;11.60;99.90;;;;;;4994274;28;20030;-78
2023/04/29 04:44:56;;;;;;;8.93;5.00;;;11.60;99.90;;;;;;4991659;28;20026;-76
2023/04/29 04:47:22;;;;;;;9.43;4.78;;;11.60;99.90;;;;;;4994007;28;20105;-78
2023/04/29 04:49:48;;;;;;;12.63;5.03;;;11.60;99.90;;;;;;4994052;28;20133;-78
2023/04/29 04:52:14;;;;;;;8.23;5.60;;;11.60;99.90;;;;;;4996869;28;20098;-76
2023/04/29 04:54:40;;;;;;;5.45;3.67;;;11.60;99.90;;;;;;4996616;28;20065;-79
2023/04/29 04:57:06;;;;;;;6.40;4.03;;;11.60;99.90;;;;;;4993376;28;20038;-78
2023/04/29 04:59:32;;;;;;;6.47;4.55;;;11.60;99.90;;;;;;4994144;28;20038;-79
2023/04/29 05:01:58;;;;;;;8.52;4.80;;;11.60;99.90;;;;;;4995831;28;20030;-79
2023/04/29 05:04:23;;;;;;;8.25;4.70;;;11.50;99.90;;;;;;4994980;28;20095;-79
2023/04/29 05:06:49;;;;;;;6.60;4.43;;;11.60;99.90;;;;;;4995449;28;20030;-79
2023/04/29 05:09:15;;;;;;;8.80;4.57;;;11.60;99.90;;;;;;4996055;28;20022;-78
2023/04/29 05:11:41;;;;;;;7.15;4.60;;;11.60;99.90;;;;;;4993431;28;20404;-78
2023/04/29 05:14:06;;;;;;;10.60;4.53;;;11.60;99.90;;;;;;4995028;28;20560;-78
2023/04/29 05:16:32;;;;;;;8.60;4.72;;;11.60;99.90;;;;;;4993668;28;20109;-78
2023/04/29 05:18:58;;;;;;;12.45;5.55;;;11.60;99.90;;;;;;4993653;28;20416;-78
2023/04/29 05:21:23;;;;;;;10.98;5.28;;;11.70;99.90;;;;;;4993109;28;20018;-77
2023/04/29 05:23:49;;;;;;;12.73;5.47;;;11.80;99.90;;;;;;4992657;28;20053;-79
2023/04/29 05:26:14;;;;;;;10.68;6.28;;;11.90;99.90;;;;;;4993909;28;20104;-78
2023/04/29 05:28:40;;;;;;;12.98;7.18;;;11.90;99.90;;;;;;4991457;28;20081;-79
2023/04/29 05:31:06;;;;;;;15.48;7.55;;;11.90;99.90;;;;;;4992725;28;20034;-78
2023/04/29 05:33:31;;;;;;;11.60;6.80;;;12.00;99.90;;;;;;4993377;28;20536;-78
2023/04/29 05:35:57;;;;;;;11.07;6.88;;;12.00;99.90;;;;;;4993288;28;20042;-78
2023/04/29 05:38:27;;;;;;;13.30;7.15;;;12.00;99.90;;;;;;4992801;28;20091;-78
2023/04/29 05:40:56;;;;;;;13.55;6.78;;;12.00;99.90;;;;;;4992941;28;20043;-78
2023/04/29 05:43:22;;;;;;;12.63;6.90;;;12.10;99.90;;;;;;4989970;28;20022;-78
2023/04/29 05:45:48;;;;;;;12.77;7.65;;;12.20;99.90;;;;;;4990159;28;20089;-77
2023/04/29 05:48:14;;;;;;;14.38;7.60;;;12.20;99.90;;;;;;5008336;23;20049;-76
2023/04/29 05:50:40;;;;;;;16.35;7.78;;;12.30;99.90;;;;;;5023842;28;20029;-75
2023/04/29 05:53:06;;;;;;;11.70;6.88;;;12.30;99.90;;;;;;5023886;28;20025;-75
2023/04/29 05:55:31;;;;;;;20.13;7.95;;;12.40;99.90;;;;;;5028390;28;20579;-74
2023/04/29 05:57:57;;;;;;;10.90;6.20;;;12.50;99.90;;;;;;5013333;28;20057;-76
2023/04/29 06:00:23;;;;;;;13.75;6.35;;;12.70;99.90;;;;;;5013686;28;20026;-75
2023/04/29 06:02:48;;;;;;;11.45;5.50;;;12.70;99.90;;;;;;5012051;28;20726;-76
2023/04/29 06:05:14;;;;;;;9.88;6.13;;;12.90;99.90;;;;;;5011388;28;20028;-74
2023/04/29 06:07:41;;;;;;;10.30;5.88;;;12.90;99.90;;;;;;4993659;28;20026;-75
2023/04/29 06:10:07;;;;;;;9.27;5.70;;;13.10;99.90;;;;;;5014041;28;20022;-75
2023/04/29 06:12:33;;;;;;;11.00;5.47;;;13.20;99.90;;;;;;5011511;28;20048;-75
2023/04/29 06:14:59;;;;;;;11.30;5.43;;;13.30;99.90;;;;;;5013483;28;20480;-74
2023/04/29 06:17:24;;;;;;;6.80;5.20;;;13.30;99.90;;;;;;5009955;28;20088;-75
2023/04/29 06:19:50;;;;;;;10.35;4.53;;;13.40;99.90;;;;;;5012591;28;20113;-75
2023/04/29 06:22:16;;;;;;;10.25;4.28;;;13.50;99.90;;;;;;5012072;28;20484;-75
2023/04/29 06:24:41;;;;;;;7.82;3.70;;;13.60;99.90;;;;;;5006183;28;20095;-75
2023/04/29 06:27:07;;;;;;;3.58;2.47;;;13.70;99.90;;;;;;4994884;28;20042;-74
2023/04/29 06:29:33;;;;;;;3.85;2.92;;;13.70;99.90;;;;;;5010411;28;20345;-74
2023/04/29 06:31:58;;;;;;;3.70;2.40;;;13.80;99.90;;;;;;5013033;28;20037;-75
2023/04/29 06:34:24;;;;;;;4.35;2.13;;;13.80;99.90;;;;;;5011678;28;20022;-75
2023/04/29 06:36:50;;;;;;;1.77;1.48;;;13.80;99.90;;;;;;5008889;28;20427;-76
2023/04/29 06:39:15;;;;;;;4.43;2.05;;;13.80;99.90;;;;;;5011806;28;20036;-74
2023/04/29 06:41:41;;;;;;;5.78;1.80;;;13.80;99.90;;;;;;5006205;28;20099;-75
2023/04/29 06:44:07;;;;;;;2.42;1.65;;;13.80;99.90;;;;;;5012622;28;20113;-73
2023/04/29 06:46:33;;;;;;;3.25;2.15;;;13.80;99.90;;;;;;5003906;28;20068;-74
2023/04/29 06:48:58;;;;;;;2.35;1.55;;;13.70;99.90;;;;;;5010070;28;20044;-74
2023/04/29 06:51:24;;;;;;;3.65;1.98;;;13.80;99.90;;;;;;5009953;28;20056;-75
2023/04/29 06:53:50;;;;;;;4.57;1.88;;;13.80;99.90;;;;;;5010629;28;20042;-74
2023/04/29 06:56:15;;;;;;;1.67;1.40;;;13.80;99.90;;;;;;5010140;28;20026;-74
2023/04/29 06:58:41;;;;;;;2.90;1.67;;;13.90;99.90;;;;;;5007057;28;20030;-75
2023/04/29 07:01:08;;;;;;;2.50;1.17;;;13.90;99.90;;;;;;5013767;28;20088;-75
2023/04/29 07:03:33;;;;;;;2.15;1.55;;;13.90;99.90;;;;;;5011831;28;20026;-75
2023/04/29 07:05:59;;;;;;;4.55;1.45;;;14.00;99.90;;;;;;4994191;28;20165;-75
2023/04/29 07:08:25;;;;;;;1.67;1.30;;;14.10;99.90;;;;;;5011815;28;20033;-74
2023/04/29 07:10:55;;;;;;;1.40;1.20;;;14.20;99.90;;;;;;4993508;28;20049;-74
2023/04/29 07:13:21;;;;;;;2.58;1.30;;;14.30;99.90;;;;;;5011427;28;20088;-74
2023/04/29 07:15:46;;;;;;;1.85;1.20;;;14.40;99.90;;;;;;5009910;28;20097;-75
2023/04/29 07:18:12;;;;;;;1.60;1.17;;;14.40;99.90;;;;;;5007663;28;20117;-75
2023/04/29 07:20:38;;;;;;;2.33;1.20;;;14.40;99.90;;;;;;5006765;28;20531;-76
2023/04/29 07:23:04;;;;;;;2.17;1.42;;;14.40;99.90;;;;;;5006926;28;20026;-76
2023/04/29 07:25:29;;;;;;;1.88;1.30;;;14.40;99.90;;;;;;5008036;28;20030;-74
2023/04/29 07:27:56;;;;;;;1.85;1.10;;;14.50;99.90;;;;;;5004489;28;20081;-73
2023/04/29 07:30:22;;;;;;;2.97;1.10;;;14.50;99.90;;;;;;5010040;28;20026;-73
2023/04/29 07:32:48;;;;;;;1.02;0.90;;;14.50;99.90;;;;;;5009151;28;20030;-74
2023/04/29 07:35:13;;;;;;;3.15;1.38;;;14.50;99.90;;;;;;4994105;28;20032;-74
2023/04/29 07:37:40;;;;;;;1.45;1.00;;;14.60;99.90;;;;;;5008670;28;20034;-75
2023/04/29 07:40:06;;;;;;;1.90;1.00;;;14.60;99.90;;;;;;5010094;28;20029;-74
2023/04/29 07:42:32;;;;;;;2.00;0.98;;;14.60;99.90;;;;;;5007992;28;20029;-74
2023/04/29 07:44:57;;;;;;;1.55;1.00;;;14.70;99.90;;;;;;5006459;28;20037;-74
2023/04/29 07:47:23;;;;;;;1.40;0.93;;;14.70;99.90;;;;;;5008287;28;20050;-74
2023/04/29 07:49:48;;;;;;;2.75;1.20;;;14.60;99.90;;;;;;5006398;28;20040;-74
2023/04/29 07:52:14;;;;;;;2.67;1.20;;;14.60;99.90;;;;;;5009666;28;20080;-74
2023/04/29 07:54:39;;;;;;;1.88;1.10;;;14.60;99.90;;;;;;4991517;28;20022;-74
2023/04/29 07:57:05;;;;;;;1.70;0.98;;;14.70;99.90;;;;;;5012127;28;20052;-74
2023/04/29 07:59:31;;;;;;;3.90;1.17;;;14.80;99.90;;;;;;5006492;28;21110;-75
2023/04/29 08:01:57;;;;;;;1.55;0.93;;;14.90;99.90;;;;;;4988211;28;20038;-74
2023/04/29 08:04:23;;;;;;;1.73;1.23;;;15.00;99.90;;;;;;5003569;28;20399;-74
2023/04/29 08:06:48;;;;;;;1.75;1.08;;;15.10;99.90;;;;;;5008988;28;20026;-74
2023/04/29 08:09:15;;;;;;;1.33;0.90;;;15.10;99.90;;;;;;5012876;28;20058;-74
2023/04/29 08:11:41;;;;;;;0.77;0.70;;;15.20;99.90;;;;;;5005721;28;20025;-74
2023/04/29 08:14:07;;;;;;;2.80;0.85;;;15.30;99.90;;;;;;5008637;28;20508;-74
2023/04/29 08:16:33;;;;;;;1.30;0.70;;;15.40;99.90;;;;;;5006904;28;20026;-74
2023/04/29 08:18:58;;;;;;;1.75;1.02;;;15.50;99.90;;;;;;5006363;28;20037;-74
2023/04/29 08:21:24;;;;;;;1.98;0.80;;;15.50;99.90;;;;;;5011698;28;20056;-74
2023/04/29 08:23:50;;;;;;;2.08;0.70;;;15.70;99.90;;;;;;4990796;28;20423;-74
2023/04/29 08:26:15;;;;;;;3.38;0.82;;;15.70;99.90;;;;;;4998539;28;20032;-74
2023/04/29 08:28:41;;;;;;;0.80;0.70;;;15.70;99.90;;;;;;5010999;28;20034;-74
2023/04/29 08:31:09;;;;;;;2.28;1.08;;;15.80;99.90;;;;;;4994518;28;20030;-74
2023/04/29 08:33:35;;;;;;;0.80;0.70;;;15.80;99.90;;;;;;5013545;28;20026;-75
2023/04/29 08:36:02;;;;;;;1.50;0.70;;;15.80;99.90;;;;;;5010563;28;20042;-74
2023/04/29 08:38:28;;;;;;;1.30;0.80;;;15.90;99.90;;;;;;5011031;28;20036;-74
2023/04/29 08:40:55;;;;;;;1.38;0.95;;;15.90;99.90;;;;;;5008830;28;20037;-74
2023/04/29 08:43:21;;;;;;;2.15;0.70;;;15.90;99.90;;;;;;5010888;28;20573;-74
2023/04/29 08:45:50;;;;;;;1.02;0.80;;;15.90;99.90;;;;;;5011003;28;20038;-74
2023/04/29 08:48:17;;;;;;;2.00;0.98;;;16.00;99.90;;;;;;5009260;28;20026;-74
2023/04/29 08:50:43;;;;;;;1.60;1.08;;;16.10;99.90;;;;;;5012212;28;20022;-74
2023/04/29 08:53:10;;;;;;;1.45;0.90;;;16.10;99.90;;;;;;5012918;28;20032;-74
2023/04/29 08:55:47;;;;;;;1.40;0.75;;;16.10;99.90;;;;;;5011853;28;20045;-74
2023/04/29 08:58:15;;;;;;;1.50;0.77;;;16.20;99.90;;;;;;5013655;28;20121;-74
2023/04/29 09:00:42;;;;;;;1.38;1.00;;;16.20;99.90;;;;;;5011147;28;20480;-74
2023/04/29 09:03:36;;;;;;;3.05;1.10;;;16.10;99.90;;;;;;5012769;28;20033;-74
2023/04/29 09:06:04;;;;;;;1.75;1.00;;;16.20;99.90;;;;;;5011386;28;20096;-74
2023/04/29 09:08:31;;;;;;;4.53;0.90;;;16.20;99.90;;;;;;5010148;28;20416;-74
2023/04/29 09:10:58;;;;;;;1.10;0.70;;;16.30;99.90;;;;;;4994029;28;20308;-74
2023/04/29 09:13:25;;;;;;;1.23;0.82;;;16.40;99.90;;;;;;5008193;28;20036;-74
2023/04/29 09:15:51;;;;;;;1.55;0.80;;;16.30;99.90;;;;;;5009800;28;20033;-74
2023/04/29 09:18:46;;;;;;;2.90;0.75;;;16.30;99.90;;;;;;5007360;28;20022;-74
2023/04/29 09:21:16;;;;;;;0.95;0.70;;;16.20;99.90;;;;;;4982005;28;20045;-74
2023/04/29 09:23:43;;;;;;;1.23;0.77;;;16.20;99.90;;;;;;4997197;28;20457;-74
2023/04/29 09:26:08;;;;;;;1.52;0.73;;;16.20;99.90;;;;;;5009619;28;20128;-74
2023/04/29 09:28:34;;;;;;;0.95;0.70;;;16.20;99.90;;;;;;5006693;28;20117;-73
2023/04/29 09:31:05;;;;;;;3.45;0.73;;;16.20;99.90;;;;;;5008063;28;20038;-74
2023/04/29 09:33:31;;;;;;;1.67;0.68;;;16.30;99.90;;;;;;5010062;28;20066;-75
2023/04/29 09:35:57;;;;;;;1.88;0.60;;;16.40;99.90;;;;;;5005575;28;20041;-74
2023/04/29 09:38:22;;;;;;;1.85;0.60;;;16.50;99.90;;;;;;5008572;28;20033;-73
2023/04/29 09:40:50;;;;;;;1.35;0.90;;;16.50;99.90;;;;;;5014103;28;20030;-74
2023/04/29 09:43:17;;;;;;;1.55;0.70;;;16.50;99.90;;;;;;5011708;28;21263;-74
2023/04/29 09:45:47;;;;;;;1.20;0.90;;;16.50;99.90;;;;;;5011304;28;20101;-74
2023/04/29 09:48:14;;;;;;;1.13;0.80;;;16.40;99.90;;;;;;5007786;28;20030;-75
2023/04/29 09:50:42;;;;;;;1.60;0.90;;;16.40;99.90;;;;;;5012520;28;20018;-75
2023/04/29 09:53:09;;;;;;;1.30;0.60;;;16.40;99.90;;;;;;5012655;28;20025;-75
2023/04/29 09:55:35;;;;;;;2.10;0.80;;;16.60;99.90;;;;;;5007622;28;20022;-75
2023/04/29 09:58:01;;;;;;;2.05;0.93;;;16.60;99.90;;;;;;5009081;28;20025;-75
2023/04/29 10:00:32;;;;;;;0.77;0.70;;;16.70;99.90;;;;;;5007890;28;20030;-75
2023/04/29 10:03:00;;;;;;;2.58;0.80;;;16.70;99.90;;;;;;5007637;28;20109;-75
2023/04/29 10:05:28;;;;;;;2.95;0.95;;;16.80;99.90;;;;;;5010136;28;20025;-75
2023/04/29 10:07:55;;;;;;;1.67;1.27;;;16.80;99.90;;;;;;4994017;28;20026;-75
2023/04/29 10:10:23;;;;;;;2.28;1.10;;;16.80;99.90;;;;;;5010953;28;20026;-75
2023/04/29 10:12:52;;;;;;;1.33;1.05;;;16.90;99.90;;;;;;5008732;28;20046;-74
2023/04/29 10:15:28;;;;;;;1.30;0.90;;;16.90;99.90;;;;;;5011341;28;20030;-74
2023/04/29 10:18:02;;;;;;;2.05;1.02;;;17.00;99.90;;;;;;5008358;28;20117;-75
2023/04/29 10:20:28;;;;;;;1.10;0.60;;;17.00;99.90;;;;;;5006600;28;20101;-75
2023/04/29 10:22:55;;;;;;;2.40;0.60;;;16.90;99.90;;;;;;5006832;28;20037;-75
2023/04/29 10:25:23;;;;;;;0.75;0.60;;;17.00;99.90;;;;;;5008410;28;20025;-74
2023/04/29 10:27:52;;;;;;;2.13;0.98;;;17.00;99.90;;;;;;5008611;28;20116;-74
2023/04/29 10:30:19;;;;;;;1.65;0.80;;;17.10;99.90;;;;;;4989390;28;20029;-74
2023/04/29 10:32:46;;;;;;;1.00;0.77;;;17.20;99.90;;;;;;5008600;28;20624;-73
2023/04/29 10:35:14;;;;;;;1.02;0.75;;;17.20;99.90;;;;;;5010620;28;20040;-75
2023/04/29 10:37:41;;;;;;;2.92;0.80;;;17.20;99.90;;;;;;5009645;28;20050;-75
2023/04/29 10:40:17;;;;;;;1.98;0.85;;;17.30;99.90;;;;;;5009035;28;20088;-75
2023/04/29 10:42:51;;;;;;;1.10;0.77;;;17.40;99.90;;;;;;5007896;28;20022;-75
2023/04/29 10:45:19;;;;;;;1.00;0.57;;;17.40;99.90;;;;;;5004922;28;20100;-75
2023/04/29 10:48:09;;;;;;;1.30;0.50;;;17.40;99.90;;;;;;5010628;28;20030;-76
2023/04/29 10:50:47;;;;;;;1.45;0.80;;;17.50;99.90;;;;;;5008907;28;20052;-75
2023/04/29 10:53:18;;;;;;;2.03;0.70;;;17.50;99.90;;;;;;5005172;28;20216;-74
2023/04/29 10:56:09;;;;;;;2.25;0.77;;;17.30;99.90;;;;;;5007406;28;20014;-75
2023/04/29 10:58:45;;;;;;;4.85;0.80;;;17.40;99.90;;;;;;5000362;28;20038;-75
2023/04/29 11:01:15;;;;;;;2.17;0.70;;;17.40;99.90;;;;;;5009622;28;20424;-75
2023/04/29 11:04:00;;;;;;;2.65;0.90;;;17.30;99.90;;;;;;5011054;28;20109;-75
2023/04/29 11:06:35;;;;;;;1.40;0.95;;;17.30;99.90;;;;;;5007477;28;20032;-75
2023/04/29 11:09:22;;;;;;;4.82;0.82;;;17.30;99.90;;;;;;5004350;28;20111;-75
2023/04/29 11:12:02;;;;;;;1.98;0.98;;;17.30;99.90;;;;;;4988270;28;20084;-75
2023/04/29 11:14:40;;;;;;;2.40;1.45;;;17.20;99.90;;;;;;5002483;28;20053;-75
2023/04/29 11:17:12;;;;;;;1.45;1.15;;;17.10;99.90;;;;;;5008443;28;20420;-75
2023/04/29 11:19:47;;;;;;;1.35;1.25;;;17.00;99.90;;;;;;5008911;28;20113;-75
2023/04/29 11:22:22;;;;;;;1.90;1.05;;;17.00;99.90;;;;;;5008729;28;20058;-75
2023/04/29 11:24:50;;;;;;;1.30;0.98;;;17.00;99.90;;;;;;4991776;28;20030;-75
2023/04/29 11:27:17;;;;;;;2.20;1.35;;;17.00;99.90;;;;;;5010007;28;20025;-74
2023/04/29 11:29:45;;;;;;;2.05;1.20;;;17.00;99.90;;;;;;5009643;28;20053;-75
2023/04/29 11:32:11;;;;;;;1.88;1.20;;;16.90;99.90;;;;;;5006950;28;20018;-75
2023/04/29 11:34:36;;;;;;;3.03;1.05;;;16.80;99.90;;;;;;5005487;28;20391;-75
2023/04/29 11:37:04;;;;;;;1.55;0.88;;;16.80;99.90;;;;;;5009638;28;20517;-75
2023/04/29 11:39:35;;;;;;;1.35;0.90;;;16.70;99.90;;;;;;5011217;28;20026;-75
2023/04/29 11:42:07;;;;;;;2.15;0.93;;;16.80;99.90;;;;;;5007385;28;20057;-74
2023/04/29 11:44:34;;;;;;;1.88;0.90;;;16.80;99.90;;;;;;4991519;28;20026;-74
2023/04/29 11:47:04;;;;;;;1.65;1.23;;;16.80;99.90;;;;;;5003669;28;20034;-75
2023/04/29 11:49:34;;;;;;;1.77;1.02;;;16.90;99.90;;;;;;5031808;23;20069;-75
2023/04/29 11:52:00;;;;;;;2.42;1.20;;;17.00;99.90;;;;;;5007746;28;20026;-75
2023/04/29 11:54:29;;;;;;;1.85;0.80;;;17.10;99.90;;;;;;5034586;28;20018;-75
2023/04/29 11:56:57;;;;;;;1.75;1.05;;;17.10;99.90;;;;;;5022512;28;20037;-75
2023/04/29 11:59:23;;;;;;;1.67;1.30;;;17.20;99.90;;;;;;5024430;28;20392;-75
2023/04/29 12:01:49;;;;;;;1.60;0.98;;;17.20;99.90;;;;;;5019718;28;20025;-75
2023/04/29 12:04:16;;;;;;;1.27;0.80;;;17.30;99.90;;;;;;5013001;28;20025;-75
2023/04/29 12:06:41;;;;;;;2.25;1.00;;;17.40;99.90;;;;;;5013832;28;20033;-75
2023/04/29 12:09:07;;;;;;;1.00;0.73;;;17.60;99.90;;;;;;5015318;28;20026;-76
2023/04/29 12:11:34;;;;;;;2.38;1.02;;;17.70;99.90;;;;;;5020879;28;20432;-75
2023/04/29 12:14:02;;;;;;;2.28;0.82;;;17.80;99.90;;;;;;5015146;28;20057;-76
2023/04/29 12:16:29;;;;;;;3.40;1.10;;;17.90;99.90;;;;;;4999440;28;20037;-76
2023/04/29 12:18:55;;;;;;;1.35;0.70;;;17.80;99.90;;;;;;5013869;28;20130;-77
2023/04/29 12:21:21;;;;;;;1.23;0.93;;;17.80;99.90;;;;;;5015024;28;20026;-77
2023/04/29 12:23:47;;;;;;;1.15;0.90;;;17.80;99.90;;;;;;5017556;28;20060;-77
2023/04/29 12:26:13;;;;;;;4.35;1.42;;;17.70;99.90;;;;;;5018302;28;20026;-76
2023/04/29 12:28:42;;;;;;;1.50;1.17;;;17.70;99.90;;;;;;5016441;28;20049;-75
2023/04/29 12:31:12;;;;;;;2.63;1.65;;;17.60;99.90;;;;;;5013616;28;20449;-76
2023/04/29 12:33:41;;;;;;;2.10;1.30;;;17.60;99.90;;;;;;5015325;28;20029;-76
2023/04/29 12:36:18;;;;;;;3.70;1.25;;;17.50;99.90;;;;;;5012570;28;20010;-76
2023/04/29 12:38:44;;;;;;;3.15;1.48;;;17.40;99.90;;;;;;5014561;28;20037;-74
2023/04/29 12:59:17;;;;;;;2.65;1.55;;;17.00;99.90;;;;;;5055977;23;20074;-78
2023/04/29 13:01:42;;;;;;;2.10;1.45;;;17.00;99.90;;;;;;5012904;28;20029;-78
2023/04/29 13:04:10;;;;;;;1.90;1.48;;;17.00;99.90;;;;;;5001016;28;20071;-78
2023/04/29 13:06:45;;;;;;;3.67;1.67;;;17.00;99.90;;;;;;5009763;28;20065;-78